sensor_id;sensor_type;location;lat;lon;timestamp;P1;durP1;ratioP1;P2;durP2;ratioP2
50773;SDS011;36745;48.544;8.918;2022-09-09T00:02:18;8.35;;;2.22;;
50773;SDS011;36745;48.544;8.918;2022-09-09T00:05:31;6.10;;;1.90;;
50773;SDS011;36745;48.544;8.918;2022-09-09T00:08:48;3.58;;;2.17;;
50773;SDS011;36745;48.544;8.918;2022-09-09T00:12:02;2.95;;;2.20;;
50773;SDS011;36745;48.544;8.918;2022-09-09T00:25:14;4.25;;;1.90;;
50773;SDS011;36745;48.544;8.918;2022-09-09T00:28:26;8.40;;;2.30;;
50773;SDS011;36745;48.544;8.918;2022-09-09T00:31:31;6.82;;;2.05;;
50773;SDS011;36745;48.544;8.918;2022-09-09T00:34:35;6.47;;;2.03;;
50773;SDS011;36745;48.544;8.918;2022-09-09T00:37:39;6.40;;;2.10;;
50773;SDS011;36745;48.544;8.918;2022-09-09T00:41:01;5.18;;;1.83;;
50773;SDS011;36745;48.544;8.918;2022-09-09T00:51:05;4.85;;;1.88;;
50773;SDS011;36745;48.544;8.918;2022-09-09T00:54:15;5.25;;;2.30;;
50773;SDS011;36745;48.544;8.918;2022-09-09T00:57:38;7.03;;;2.42;;
50773;SDS011;36745;48.544;8.918;2022-09-09T01:03:47;6.70;;;2.50;;
50773;SDS011;36745;48.544;8.918;2022-09-09T01:07:15;6.30;;;1.88;;
50773;SDS011;36745;48.544;8.918;2022-09-09T01:13:49;4.45;;;2.10;;
50773;SDS011;36745;48.544;8.918;2022-09-09T01:16:57;5.13;;;2.00;;
50773;SDS011;36745;48.544;8.918;2022-09-09T01:29:35;7.10;;;2.17;;
50773;SDS011;36745;48.544;8.918;2022-09-09T01:32:49;4.38;;;2.00;;
50773;SDS011;36745;48.544;8.918;2022-09-09T01:35:54;7.88;;;2.65;;
50773;SDS011;36745;48.544;8.918;2022-09-09T01:39:01;6.13;;;2.10;;
50773;SDS011;36745;48.544;8.918;2022-09-09T01:42:03;3.92;;;2.13;;
50773;SDS011;36745;48.544;8.918;2022-09-09T01:45:06;4.63;;;1.95;;
50773;SDS011;36745;48.544;8.918;2022-09-09T01:48:08;3.38;;;1.60;;
50773;SDS011;36745;48.544;8.918;2022-09-09T01:51:09;3.10;;;2.10;;
50773;SDS011;36745;48.544;8.918;2022-09-09T01:54:13;6.20;;;2.17;;
50773;SDS011;36745;48.544;8.918;2022-09-09T01:57:21;4.97;;;1.98;;
50773;SDS011;36745;48.544;8.918;2022-09-09T02:00:39;6.20;;;2.05;;
50773;SDS011;36745;48.544;8.918;2022-09-09T02:06:57;8.73;;;1.85;;
50773;SDS011;36745;48.544;8.918;2022-09-09T02:10:31;4.57;;;2.00;;
50773;SDS011;36745;48.544;8.918;2022-09-09T02:13:29;8.10;;;1.80;;
50773;SDS011;36745;48.544;8.918;2022-09-09T02:16:37;9.25;;;2.22;;
50773;SDS011;36745;48.544;8.918;2022-09-09T02:19:45;6.40;;;2.10;;
50773;SDS011;36745;48.544;8.918;2022-09-09T02:22:50;4.93;;;1.70;;
50773;SDS011;36745;48.544;8.918;2022-09-09T02:25:52;4.80;;;1.70;;
50773;SDS011;36745;48.544;8.918;2022-09-09T02:28:56;3.60;;;1.60;;
50773;SDS011;36745;48.544;8.918;2022-09-09T02:35:08;3.67;;;1.90;;
50773;SDS011;36745;48.544;8.918;2022-09-09T02:38:12;5.47;;;1.90;;
50773;SDS011;36745;48.544;8.918;2022-09-09T02:41:17;5.85;;;1.70;;
50773;SDS011;36745;48.544;8.918;2022-09-09T02:44:22;3.67;;;1.70;;
50773;SDS011;36745;48.544;8.918;2022-09-09T02:50:40;3.53;;;2.10;;
50773;SDS011;36745;48.544;8.918;2022-09-09T02:57:16;6.45;;;1.95;;
50773;SDS011;36745;48.544;8.918;2022-09-09T03:00:25;2.88;;;1.75;;
50773;SDS011;36745;48.544;8.918;2022-09-09T03:03:27;6.72;;;2.10;;
50773;SDS011;36745;48.544;8.918;2022-09-09T03:06:29;6.03;;;1.83;;
50773;SDS011;36745;48.544;8.918;2022-09-09T03:09:33;6.20;;;2.00;;
50773;SDS011;36745;48.544;8.918;2022-09-09T03:12:34;3.42;;;2.10;;
50773;SDS011;36745;48.544;8.918;2022-09-09T03:15:38;5.63;;;2.03;;
50773;SDS011;36745;48.544;8.918;2022-09-09T03:18:40;7.22;;;2.30;;
50773;SDS011;36745;48.544;8.918;2022-09-09T03:21:41;3.67;;;2.08;;
50773;SDS011;36745;48.544;8.918;2022-09-09T03:24:42;5.88;;;1.85;;
50773;SDS011;36745;48.544;8.918;2022-09-09T03:27:43;3.97;;;1.90;;
50773;SDS011;36745;48.544;8.918;2022-09-09T03:30:44;5.82;;;2.13;;
50773;SDS011;36745;48.544;8.918;2022-09-09T03:33:45;4.55;;;1.98;;
50773;SDS011;36745;48.544;8.918;2022-09-09T03:36:46;6.93;;;1.95;;
50773;SDS011;36745;48.544;8.918;2022-09-09T03:39:49;5.20;;;1.95;;
50773;SDS011;36745;48.544;8.918;2022-09-09T03:42:50;4.68;;;1.60;;
50773;SDS011;36745;48.544;8.918;2022-09-09T03:45:51;3.97;;;2.10;;
50773;SDS011;36745;48.544;8.918;2022-09-09T03:48:52;6.05;;;2.15;;
50773;SDS011;36745;48.544;8.918;2022-09-09T03:51:54;2.70;;;1.73;;
50773;SDS011;36745;48.544;8.918;2022-09-09T03:54:57;8.23;;;2.42;;
50773;SDS011;36745;48.544;8.918;2022-09-09T03:57:58;4.22;;;1.80;;
50773;SDS011;36745;48.544;8.918;2022-09-09T04:01:06;3.22;;;1.70;;
50773;SDS011;36745;48.544;8.918;2022-09-09T04:04:09;8.00;;;2.35;;
50773;SDS011;36745;48.544;8.918;2022-09-09T04:07:10;4.05;;;1.92;;
50773;SDS011;36745;48.544;8.918;2022-09-09T04:10:12;10.93;;;2.53;;
50773;SDS011;36745;48.544;8.918;2022-09-09T04:13:14;5.10;;;2.58;;
50773;SDS011;36745;48.544;8.918;2022-09-09T04:16:17;7.28;;;2.60;;
50773;SDS011;36745;48.544;8.918;2022-09-09T04:19:21;6.72;;;2.65;;
50773;SDS011;36745;48.544;8.918;2022-09-09T04:22:22;5.38;;;2.40;;
50773;SDS011;36745;48.544;8.918;2022-09-09T04:25:23;6.05;;;1.90;;
50773;SDS011;36745;48.544;8.918;2022-09-09T04:28:25;5.85;;;2.17;;
50773;SDS011;36745;48.544;8.918;2022-09-09T04:31:29;5.15;;;2.25;;
50773;SDS011;36745;48.544;8.918;2022-09-09T04:34:30;9.50;;;2.20;;
50773;SDS011;36745;48.544;8.918;2022-09-09T04:37:31;7.32;;;2.30;;
50773;SDS011;36745;48.544;8.918;2022-09-09T04:40:32;4.47;;;2.28;;
50773;SDS011;36745;48.544;8.918;2022-09-09T04:43:34;5.10;;;1.80;;
50773;SDS011;36745;48.544;8.918;2022-09-09T04:46:35;5.55;;;1.80;;
50773;SDS011;36745;48.544;8.918;2022-09-09T04:49:36;4.53;;;2.08;;
50773;SDS011;36745;48.544;8.918;2022-09-09T04:52:37;5.40;;;2.08;;
50773;SDS011;36745;48.544;8.918;2022-09-09T04:55:38;7.57;;;2.63;;
50773;SDS011;36745;48.544;8.918;2022-09-09T04:58:39;7.47;;;2.45;;
50773;SDS011;36745;48.544;8.918;2022-09-09T05:01:43;3.88;;;1.88;;
50773;SDS011;36745;48.544;8.918;2022-09-09T05:04:44;6.43;;;2.42;;
50773;SDS011;36745;48.544;8.918;2022-09-09T05:07:45;5.05;;;2.00;;
50773;SDS011;36745;48.544;8.918;2022-09-09T05:10:46;5.68;;;2.00;;
50773;SDS011;36745;48.544;8.918;2022-09-09T05:13:47;7.80;;;2.22;;
50773;SDS011;36745;48.544;8.918;2022-09-09T05:16:48;4.88;;;1.67;;
50773;SDS011;36745;48.544;8.918;2022-09-09T05:19:50;4.72;;;2.20;;
50773;SDS011;36745;48.544;8.918;2022-09-09T05:22:54;5.22;;;2.47;;
50773;SDS011;36745;48.544;8.918;2022-09-09T05:25:57;3.20;;;2.20;;
50773;SDS011;36745;48.544;8.918;2022-09-09T05:28:58;5.88;;;2.60;;
50773;SDS011;36745;48.544;8.918;2022-09-09T05:32:00;4.25;;;2.42;;
50773;SDS011;36745;48.544;8.918;2022-09-09T05:35:02;7.63;;;2.65;;
50773;SDS011;36745;48.544;8.918;2022-09-09T05:38:03;6.28;;;2.30;;
50773;SDS011;36745;48.544;8.918;2022-09-09T05:41:04;6.10;;;2.40;;
50773;SDS011;36745;48.544;8.918;2022-09-09T05:44:06;7.88;;;2.15;;
50773;SDS011;36745;48.544;8.918;2022-09-09T05:47:07;4.43;;;2.30;;
50773;SDS011;36745;48.544;8.918;2022-09-09T05:50:08;7.88;;;2.50;;
50773;SDS011;36745;48.544;8.918;2022-09-09T05:53:09;4.10;;;2.63;;
50773;SDS011;36745;48.544;8.918;2022-09-09T05:56:12;7.18;;;3.10;;
50773;SDS011;36745;48.544;8.918;2022-09-09T05:59:18;6.50;;;2.75;;
50773;SDS011;36745;48.544;8.918;2022-09-09T06:02:19;6.85;;;2.85;;
50773;SDS011;36745;48.544;8.918;2022-09-09T06:05:20;8.00;;;2.63;;
50773;SDS011;36745;48.544;8.918;2022-09-09T06:08:23;5.13;;;2.50;;
50773;SDS011;36745;48.544;8.918;2022-09-09T06:11:29;7.07;;;2.60;;
50773;SDS011;36745;48.544;8.918;2022-09-09T06:14:36;8.50;;;2.83;;
50773;SDS011;36745;48.544;8.918;2022-09-09T06:17:37;4.85;;;2.10;;
50773;SDS011;36745;48.544;8.918;2022-09-09T06:20:39;3.55;;;2.47;;
50773;SDS011;36745;48.544;8.918;2022-09-09T06:23:40;10.18;;;2.95;;
50773;SDS011;36745;48.544;8.918;2022-09-09T06:26:41;8.82;;;2.67;;
50773;SDS011;36745;48.544;8.918;2022-09-09T06:29:42;6.43;;;2.70;;
50773;SDS011;36745;48.544;8.918;2022-09-09T06:32:43;7.65;;;2.60;;
50773;SDS011;36745;48.544;8.918;2022-09-09T06:35:50;5.28;;;2.50;;
50773;SDS011;36745;48.544;8.918;2022-09-09T06:38:53;6.75;;;2.30;;
50773;SDS011;36745;48.544;8.918;2022-09-09T06:41:55;7.38;;;2.67;;
50773;SDS011;36745;48.544;8.918;2022-09-09T06:44:59;9.52;;;3.45;;
50773;SDS011;36745;48.544;8.918;2022-09-09T06:47:59;9.85;;;3.40;;
50773;SDS011;36745;48.544;8.918;2022-09-09T06:51:02;6.85;;;2.60;;
50773;SDS011;36745;48.544;8.918;2022-09-09T06:54:07;3.65;;;2.40;;
50773;SDS011;36745;48.544;8.918;2022-09-09T06:57:08;5.47;;;2.17;;
50773;SDS011;36745;48.544;8.918;2022-09-09T07:00:09;4.95;;;2.63;;
50773;SDS011;36745;48.544;8.918;2022-09-09T07:03:10;7.93;;;2.50;;
50773;SDS011;36745;48.544;8.918;2022-09-09T07:06:16;8.65;;;2.17;;
50773;SDS011;36745;48.544;8.918;2022-09-09T07:09:24;6.90;;;2.40;;
50773;SDS011;36745;48.544;8.918;2022-09-09T07:12:25;4.53;;;2.42;;
50773;SDS011;36745;48.544;8.918;2022-09-09T07:15:26;5.93;;;2.22;;
50773;SDS011;36745;48.544;8.918;2022-09-09T07:18:27;5.20;;;1.90;;
50773;SDS011;36745;48.544;8.918;2022-09-09T07:21:28;11.45;;;2.28;;
50773;SDS011;36745;48.544;8.918;2022-09-09T07:24:30;3.97;;;1.77;;
50773;SDS011;36745;48.544;8.918;2022-09-09T07:27:32;5.97;;;1.65;;
50773;SDS011;36745;48.544;8.918;2022-09-09T07:30:33;4.38;;;1.77;;
50773;SDS011;36745;48.544;8.918;2022-09-09T07:33:34;6.78;;;1.98;;
50773;SDS011;36745;48.544;8.918;2022-09-09T07:36:39;4.88;;;1.50;;
50773;SDS011;36745;48.544;8.918;2022-09-09T07:39:42;4.25;;;1.73;;
50773;SDS011;36745;48.544;8.918;2022-09-09T07:42:43;5.10;;;1.45;;
50773;SDS011;36745;48.544;8.918;2022-09-09T07:45:44;4.57;;;1.58;;
50773;SDS011;36745;48.544;8.918;2022-09-09T07:48:46;4.32;;;1.33;;
50773;SDS011;36745;48.544;8.918;2022-09-09T07:51:52;7.20;;;1.60;;
50773;SDS011;36745;48.544;8.918;2022-09-09T07:54:53;3.45;;;1.42;;
50773;SDS011;36745;48.544;8.918;2022-09-09T07:57:55;5.30;;;1.50;;
50773;SDS011;36745;48.544;8.918;2022-09-09T08:00:56;4.45;;;1.95;;
50773;SDS011;36745;48.544;8.918;2022-09-09T08:04:01;2.70;;;1.20;;
50773;SDS011;36745;48.544;8.918;2022-09-09T08:07:07;6.97;;;1.83;;
50773;SDS011;36745;48.544;8.918;2022-09-09T08:10:08;4.82;;;1.50;;
50773;SDS011;36745;48.544;8.918;2022-09-09T08:13:09;4.35;;;1.23;;
50773;SDS011;36745;48.544;8.918;2022-09-09T08:16:12;8.05;;;1.42;;
50773;SDS011;36745;48.544;8.918;2022-09-09T08:19:14;3.97;;;1.30;;
50773;SDS011;36745;48.544;8.918;2022-09-09T08:22:16;1.77;;;1.10;;
50773;SDS011;36745;48.544;8.918;2022-09-09T08:25:17;7.03;;;1.40;;
50773;SDS011;36745;48.544;8.918;2022-09-09T08:28:18;5.32;;;1.00;;
50773;SDS011;36745;48.544;8.918;2022-09-09T08:31:20;3.95;;;1.30;;
50773;SDS011;36745;48.544;8.918;2022-09-09T08:34:23;3.83;;;1.80;;
50773;SDS011;36745;48.544;8.918;2022-09-09T08:37:27;4.30;;;1.35;;
50773;SDS011;36745;48.544;8.918;2022-09-09T08:40:28;3.42;;;1.02;;
50773;SDS011;36745;48.544;8.918;2022-09-09T08:43:35;4.20;;;1.40;;
50773;SDS011;36745;48.544;8.918;2022-09-09T08:46:39;3.75;;;1.50;;
50773;SDS011;36745;48.544;8.918;2022-09-09T08:56:15;2.28;;;1.10;;
50773;SDS011;36745;48.544;8.918;2022-09-09T08:59:19;5.85;;;1.60;;
50773;SDS011;36745;48.544;8.918;2022-09-09T09:02:54;4.25;;;1.25;;
50773;SDS011;36745;48.544;8.918;2022-09-09T09:05:59;4.78;;;1.10;;
50773;SDS011;36745;48.544;8.918;2022-09-09T09:09:28;5.47;;;0.93;;
50773;SDS011;36745;48.544;8.918;2022-09-09T09:12:55;4.63;;;0.70;;
50773;SDS011;36745;48.544;8.918;2022-09-09T09:16:27;3.72;;;1.02;;
50773;SDS011;36745;48.544;8.918;2022-09-09T09:19:29;3.80;;;1.10;;
50773;SDS011;36745;48.544;8.918;2022-09-09T09:22:50;4.05;;;0.90;;
50773;SDS011;36745;48.544;8.918;2022-09-09T09:25:55;4.50;;;1.40;;
50773;SDS011;36745;48.544;8.918;2022-09-09T09:29:00;3.65;;;0.88;;
50773;SDS011;36745;48.544;8.918;2022-09-09T09:32:11;2.25;;;0.95;;
50773;SDS011;36745;48.544;8.918;2022-09-09T09:35:17;3.33;;;0.85;;
50773;SDS011;36745;48.544;8.918;2022-09-09T09:38:18;5.78;;;1.02;;
50773;SDS011;36745;48.544;8.918;2022-09-09T09:41:40;2.80;;;1.00;;
50773;SDS011;36745;48.544;8.918;2022-09-09T09:44:43;4.75;;;1.15;;
50773;SDS011;36745;48.544;8.918;2022-09-09T09:47:44;6.60;;;0.90;;
50773;SDS011;36745;48.544;8.918;2022-09-09T09:50:49;4.18;;;1.10;;
50773;SDS011;36745;48.544;8.918;2022-09-09T09:53:51;3.35;;;1.10;;
50773;SDS011;36745;48.544;8.918;2022-09-09T09:56:54;3.00;;;0.88;;
50773;SDS011;36745;48.544;8.918;2022-09-09T10:03:12;6.25;;;1.00;;
50773;SDS011;36745;48.544;8.918;2022-09-09T10:06:31;7.18;;;1.00;;
50773;SDS011;36745;48.544;8.918;2022-09-09T10:09:38;2.58;;;0.77;;
50773;SDS011;36745;48.544;8.918;2022-09-09T10:19:33;2.80;;;0.75;;
50773;SDS011;36745;48.544;8.918;2022-09-09T10:29:42;2.13;;;0.55;;
50773;SDS011;36745;48.544;8.918;2022-09-09T10:36:17;2.55;;;1.00;;
50773;SDS011;36745;48.544;8.918;2022-09-09T10:39:32;2.17;;;0.77;;
50773;SDS011;36745;48.544;8.918;2022-09-09T10:42:37;2.58;;;0.90;;
50773;SDS011;36745;48.544;8.918;2022-09-09T10:45:41;3.17;;;0.93;;
50773;SDS011;36745;48.544;8.918;2022-09-09T10:48:47;6.70;;;1.02;;
50773;SDS011;36745;48.544;8.918;2022-09-09T10:55:23;5.78;;;1.10;;
50773;SDS011;36745;48.544;8.918;2022-09-09T10:58:33;3.67;;;0.63;;
50773;SDS011;36745;48.544;8.918;2022-09-09T11:01:46;3.05;;;0.98;;
50773;SDS011;36745;48.544;8.918;2022-09-09T11:08:06;6.47;;;1.10;;
50773;SDS011;36745;48.544;8.918;2022-09-09T11:11:14;3.20;;;0.98;;
50773;SDS011;36745;48.544;8.918;2022-09-09T11:20:57;1.77;;;0.50;;
50773;SDS011;36745;48.544;8.918;2022-09-09T11:24:44;4.65;;;0.60;;
50773;SDS011;36745;48.544;8.918;2022-09-09T11:27:50;1.23;;;0.60;;
50773;SDS011;36745;48.544;8.918;2022-09-09T11:31:16;1.42;;;0.63;;
50773;SDS011;36745;48.544;8.918;2022-09-09T11:34:44;1.92;;;0.60;;
50773;SDS011;36745;48.544;8.918;2022-09-09T11:38:13;2.95;;;0.40;;
50773;SDS011;36745;48.544;8.918;2022-09-09T11:41:19;2.97;;;0.82;;
50773;SDS011;36745;48.544;8.918;2022-09-09T11:44:26;3.87;;;0.50;;
50773;SDS011;36745;48.544;8.918;2022-09-09T11:47:30;5.05;;;0.55;;
50773;SDS011;36745;48.544;8.918;2022-09-09T11:50:32;3.22;;;0.68;;
50773;SDS011;36745;48.544;8.918;2022-09-09T11:53:50;2.85;;;0.70;;
50773;SDS011;36745;48.544;8.918;2022-09-09T11:56:53;1.88;;;0.40;;
50773;SDS011;36745;48.544;8.918;2022-09-09T11:59:54;2.55;;;0.63;;
50773;SDS011;36745;48.544;8.918;2022-09-09T12:02:55;3.10;;;0.70;;
50773;SDS011;36745;48.544;8.918;2022-09-09T12:05:56;1.42;;;0.70;;
50773;SDS011;36745;48.544;8.918;2022-09-09T12:09:06;2.53;;;0.68;;
50773;SDS011;36745;48.544;8.918;2022-09-09T12:12:21;3.05;;;0.60;;
50773;SDS011;36745;48.544;8.918;2022-09-09T12:15:25;1.42;;;0.50;;
50773;SDS011;36745;48.544;8.918;2022-09-09T12:18:33;2.83;;;0.60;;
50773;SDS011;36745;48.544;8.918;2022-09-09T12:21:42;5.35;;;0.70;;
50773;SDS011;36745;48.544;8.918;2022-09-09T12:24:52;6.30;;;0.75;;
50773;SDS011;36745;48.544;8.918;2022-09-09T12:28:24;3.60;;;0.68;;
50773;SDS011;36745;48.544;8.918;2022-09-09T12:31:29;3.65;;;0.60;;
50773;SDS011;36745;48.544;8.918;2022-09-09T12:37:41;4.80;;;0.70;;
50773;SDS011;36745;48.544;8.918;2022-09-09T12:40:54;2.83;;;0.57;;
50773;SDS011;36745;48.544;8.918;2022-09-09T12:44:06;4.97;;;0.70;;
50773;SDS011;36745;48.544;8.918;2022-09-09T12:50:33;2.92;;;0.90;;
50773;SDS011;36745;48.544;8.918;2022-09-09T12:53:37;4.15;;;0.60;;
50773;SDS011;36745;48.544;8.918;2022-09-09T12:56:40;3.47;;;1.23;;
50773;SDS011;36745;48.544;8.918;2022-09-09T12:59:47;3.40;;;0.63;;
50773;SDS011;36745;48.544;8.918;2022-09-09T13:02:52;3.70;;;0.73;;
50773;SDS011;36745;48.544;8.918;2022-09-09T13:05:57;5.45;;;1.40;;
50773;SDS011;36745;48.544;8.918;2022-09-09T13:09:03;9.73;;;3.47;;
50773;SDS011;36745;48.544;8.918;2022-09-09T13:12:04;7.07;;;1.02;;
50773;SDS011;36745;48.544;8.918;2022-09-09T13:15:19;2.40;;;0.70;;
50773;SDS011;36745;48.544;8.918;2022-09-09T13:18:23;2.60;;;0.63;;
50773;SDS011;36745;48.544;8.918;2022-09-09T13:21:31;2.33;;;0.55;;
50773;SDS011;36745;48.544;8.918;2022-09-09T13:24:37;4.35;;;0.80;;
50773;SDS011;36745;48.544;8.918;2022-09-09T13:27:39;4.47;;;0.82;;
50773;SDS011;36745;48.544;8.918;2022-09-09T13:30:43;3.42;;;0.65;;
50773;SDS011;36745;48.544;8.918;2022-09-09T13:33:45;7.40;;;0.65;;
50773;SDS011;36745;48.544;8.918;2022-09-09T13:36:46;2.85;;;0.70;;
50773;SDS011;36745;48.544;8.918;2022-09-09T13:39:52;2.90;;;0.88;;
50773;SDS011;36745;48.544;8.918;2022-09-09T13:42:55;2.38;;;0.65;;
50773;SDS011;36745;48.544;8.918;2022-09-09T13:45:58;3.03;;;0.40;;
50773;SDS011;36745;48.544;8.918;2022-09-09T13:49:17;1.60;;;0.50;;
50773;SDS011;36745;48.544;8.918;2022-09-09T13:52:20;1.90;;;0.40;;
50773;SDS011;36745;48.544;8.918;2022-09-09T13:55:23;3.78;;;0.70;;
50773;SDS011;36745;48.544;8.918;2022-09-09T13:58:25;4.03;;;0.60;;
50773;SDS011;36745;48.544;8.918;2022-09-09T14:01:26;1.90;;;0.65;;
50773;SDS011;36745;48.544;8.918;2022-09-09T14:04:28;3.38;;;0.80;;
50773;SDS011;36745;48.544;8.918;2022-09-09T14:07:29;3.38;;;0.70;;
50773;SDS011;36745;48.544;8.918;2022-09-09T14:10:33;2.38;;;0.70;;
50773;SDS011;36745;48.544;8.918;2022-09-09T14:13:37;3.17;;;0.60;;
50773;SDS011;36745;48.544;8.918;2022-09-09T14:16:38;2.47;;;0.50;;
50773;SDS011;36745;48.544;8.918;2022-09-09T14:19:39;3.17;;;0.43;;
50773;SDS011;36745;48.544;8.918;2022-09-09T14:22:40;3.30;;;0.50;;
50773;SDS011;36745;48.544;8.918;2022-09-09T14:25:44;2.47;;;0.45;;
50773;SDS011;36745;48.544;8.918;2022-09-09T14:28:44;1.25;;;0.50;;
50773;SDS011;36745;48.544;8.918;2022-09-09T14:31:46;3.38;;;0.95;;
50773;SDS011;36745;48.544;8.918;2022-09-09T14:34:47;5.13;;;1.92;;
50773;SDS011;36745;48.544;8.918;2022-09-09T14:37:51;2.95;;;0.63;;
50773;SDS011;36745;48.544;8.918;2022-09-09T14:40:52;2.85;;;0.60;;
50773;SDS011;36745;48.544;8.918;2022-09-09T14:43:53;2.78;;;0.80;;
50773;SDS011;36745;48.544;8.918;2022-09-09T14:46:54;3.40;;;0.70;;
50773;SDS011;36745;48.544;8.918;2022-09-09T14:49:55;6.20;;;0.85;;
50773;SDS011;36745;48.544;8.918;2022-09-09T14:52:56;3.17;;;0.70;;
50773;SDS011;36745;48.544;8.918;2022-09-09T14:56:07;2.22;;;0.60;;
50773;SDS011;36745;48.544;8.918;2022-09-09T14:59:18;4.90;;;0.50;;
50773;SDS011;36745;48.544;8.918;2022-09-09T15:02:19;3.97;;;0.63;;
50773;SDS011;36745;48.544;8.918;2022-09-09T15:05:20;2.97;;;0.63;;
50773;SDS011;36745;48.544;8.918;2022-09-09T15:08:21;3.78;;;0.60;;
50773;SDS011;36745;48.544;8.918;2022-09-09T15:11:22;7.03;;;0.50;;
50773;SDS011;36745;48.544;8.918;2022-09-09T15:14:25;2.63;;;0.40;;
50773;SDS011;36745;48.544;8.918;2022-09-09T15:17:26;4.57;;;0.52;;
50773;SDS011;36745;48.544;8.918;2022-09-09T15:20:27;2.90;;;0.68;;
50773;SDS011;36745;48.544;8.918;2022-09-09T15:23:28;2.45;;;0.40;;
50773;SDS011;36745;48.544;8.918;2022-09-09T15:26:32;2.03;;;0.50;;
50773;SDS011;36745;48.544;8.918;2022-09-09T15:29:33;4.25;;;0.30;;
50773;SDS011;36745;48.544;8.918;2022-09-09T15:32:34;2.90;;;0.73;;
50773;SDS011;36745;48.544;8.918;2022-09-09T15:35:35;1.88;;;0.60;;
50773;SDS011;36745;48.544;8.918;2022-09-09T15:38:36;2.95;;;0.40;;
50773;SDS011;36745;48.544;8.918;2022-09-09T15:41:40;0.82;;;0.52;;
50773;SDS011;36745;48.544;8.918;2022-09-09T15:44:41;4.22;;;0.40;;
50773;SDS011;36745;48.544;8.918;2022-09-09T15:47:46;1.58;;;0.60;;
50773;SDS011;36745;48.544;8.918;2022-09-09T15:50:47;1.95;;;0.35;;
50773;SDS011;36745;48.544;8.918;2022-09-09T15:54:03;3.13;;;0.40;;
50773;SDS011;36745;48.544;8.918;2022-09-09T15:57:04;2.15;;;0.30;;
50773;SDS011;36745;48.544;8.918;2022-09-09T16:00:07;2.33;;;0.35;;
50773;SDS011;36745;48.544;8.918;2022-09-09T16:03:12;3.65;;;0.63;;
50773;SDS011;36745;48.544;8.918;2022-09-09T16:06:14;4.13;;;0.82;;
50773;SDS011;36745;48.544;8.918;2022-09-09T16:09:15;5.00;;;0.60;;
50773;SDS011;36745;48.544;8.918;2022-09-09T16:12:19;2.95;;;0.40;;
50773;SDS011;36745;48.544;8.918;2022-09-09T16:15:20;1.98;;;0.60;;
50773;SDS011;36745;48.544;8.918;2022-09-09T16:18:26;3.70;;;0.80;;
50773;SDS011;36745;48.544;8.918;2022-09-09T16:21:28;4.97;;;0.40;;
50773;SDS011;36745;48.544;8.918;2022-09-09T16:24:31;2.42;;;0.32;;
50773;SDS011;36745;48.544;8.918;2022-09-09T16:27:31;3.25;;;0.73;;
50773;SDS011;36745;48.544;8.918;2022-09-09T16:30:33;2.35;;;0.70;;
50773;SDS011;36745;48.544;8.918;2022-09-09T16:33:34;6.93;;;1.10;;
50773;SDS011;36745;48.544;8.918;2022-09-09T16:36:36;1.35;;;0.55;;
50773;SDS011;36745;48.544;8.918;2022-09-09T16:39:39;4.05;;;0.40;;
50773;SDS011;36745;48.544;8.918;2022-09-09T16:42:40;2.05;;;0.63;;
50773;SDS011;36745;48.544;8.918;2022-09-09T16:49:49;5.80;;;1.40;;
50773;SDS011;36745;48.544;8.918;2022-09-09T16:53:11;3.85;;;1.10;;
50773;SDS011;36745;48.544;8.918;2022-09-09T16:56:35;2.65;;;0.40;;
50773;SDS011;36745;48.544;8.918;2022-09-09T16:59:58;1.58;;;0.50;;
50773;SDS011;36745;48.544;8.918;2022-09-09T17:03:20;2.35;;;0.50;;
50773;SDS011;36745;48.544;8.918;2022-09-09T17:06:42;5.93;;;0.82;;
50773;SDS011;36745;48.544;8.918;2022-09-09T17:10:06;2.88;;;0.70;;
50773;SDS011;36745;48.544;8.918;2022-09-09T17:13:28;4.78;;;0.80;;
50773;SDS011;36745;48.544;8.918;2022-09-09T17:16:50;1.77;;;0.52;;
50773;SDS011;36745;48.544;8.918;2022-09-09T17:20:11;3.05;;;0.50;;
50773;SDS011;36745;48.544;8.918;2022-09-09T17:23:34;9.00;;;0.60;;
50773;SDS011;36745;48.544;8.918;2022-09-09T17:26:58;2.28;;;0.60;;
50773;SDS011;36745;48.544;8.918;2022-09-09T17:30:20;3.65;;;0.90;;
50773;SDS011;36745;48.544;8.918;2022-09-09T17:33:43;4.32;;;0.57;;
50773;SDS011;36745;48.544;8.918;2022-09-09T17:37:06;2.08;;;0.70;;
50773;SDS011;36745;48.544;8.918;2022-09-09T17:40:28;4.20;;;0.82;;
50773;SDS011;36745;48.544;8.918;2022-09-09T17:43:49;3.20;;;0.60;;
50773;SDS011;36745;48.544;8.918;2022-09-09T17:47:11;4.72;;;0.68;;
50773;SDS011;36745;48.544;8.918;2022-09-09T17:50:33;3.95;;;0.80;;
50773;SDS011;36745;48.544;8.918;2022-09-09T17:53:55;3.65;;;0.60;;
50773;SDS011;36745;48.544;8.918;2022-09-09T17:57:19;3.45;;;0.70;;
50773;SDS011;36745;48.544;8.918;2022-09-09T18:00:43;4.57;;;0.85;;
50773;SDS011;36745;48.544;8.918;2022-09-09T18:04:05;2.90;;;0.70;;
50773;SDS011;36745;48.544;8.918;2022-09-09T18:07:28;3.03;;;0.70;;
50773;SDS011;36745;48.544;8.918;2022-09-09T18:10:52;0.82;;;0.50;;
50773;SDS011;36745;48.544;8.918;2022-09-09T18:14:16;1.73;;;0.60;;
50773;SDS011;36745;48.544;8.918;2022-09-09T18:17:39;4.65;;;0.70;;
50773;SDS011;36745;48.544;8.918;2022-09-09T18:21:02;2.70;;;0.57;;
50773;SDS011;36745;48.544;8.918;2022-09-09T18:24:26;3.47;;;0.50;;
50773;SDS011;36745;48.544;8.918;2022-09-09T18:27:47;2.47;;;0.70;;
50773;SDS011;36745;48.544;8.918;2022-09-09T18:31:10;3.17;;;0.82;;
50773;SDS011;36745;48.544;8.918;2022-09-09T18:34:33;1.15;;;0.60;;
50773;SDS011;36745;48.544;8.918;2022-09-09T18:37:54;2.60;;;0.73;;
50773;SDS011;36745;48.544;8.918;2022-09-09T18:41:26;3.35;;;0.70;;
50773;SDS011;36745;48.544;8.918;2022-09-09T18:44:49;6.28;;;0.80;;
50773;SDS011;36745;48.544;8.918;2022-09-09T18:48:10;3.20;;;1.35;;
50773;SDS011;36745;48.544;8.918;2022-09-09T18:51:32;2.75;;;0.90;;
50773;SDS011;36745;48.544;8.918;2022-09-09T18:54:56;4.93;;;1.02;;
50773;SDS011;36745;48.544;8.918;2022-09-09T18:58:18;3.28;;;0.90;;
50773;SDS011;36745;48.544;8.918;2022-09-09T19:01:39;4.97;;;1.45;;
50773;SDS011;36745;48.544;8.918;2022-09-09T19:05:02;1.67;;;0.52;;
50773;SDS011;36745;48.544;8.918;2022-09-09T19:08:23;3.88;;;0.90;;
50773;SDS011;36745;48.544;8.918;2022-09-09T19:11:45;6.53;;;0.98;;
50773;SDS011;36745;48.544;8.918;2022-09-09T19:15:06;1.98;;;0.70;;
50773;SDS011;36745;48.544;8.918;2022-09-09T19:18:27;2.42;;;0.55;;
50773;SDS011;36745;48.544;8.918;2022-09-09T19:21:49;5.60;;;0.68;;
50773;SDS011;36745;48.544;8.918;2022-09-09T19:25:11;2.33;;;0.70;;
50773;SDS011;36745;48.544;8.918;2022-09-09T19:28:33;3.92;;;0.88;;
50773;SDS011;36745;48.544;8.918;2022-09-09T19:31:55;4.88;;;0.75;;
50773;SDS011;36745;48.544;8.918;2022-09-09T19:35:19;2.30;;;0.73;;
50773;SDS011;36745;48.544;8.918;2022-09-09T19:38:40;2.28;;;0.52;;
50773;SDS011;36745;48.544;8.918;2022-09-09T19:42:01;2.25;;;0.60;;
50773;SDS011;36745;48.544;8.918;2022-09-09T19:45:23;4.00;;;0.70;;
50773;SDS011;36745;48.544;8.918;2022-09-09T19:48:44;3.38;;;0.77;;
50773;SDS011;36745;48.544;8.918;2022-09-09T19:52:06;0.90;;;0.50;;
50773;SDS011;36745;48.544;8.918;2022-09-09T19:55:27;1.80;;;0.70;;
50773;SDS011;36745;48.544;8.918;2022-09-09T19:58:49;0.95;;;0.60;;
50773;SDS011;36745;48.544;8.918;2022-09-09T20:02:12;2.35;;;0.70;;
50773;SDS011;36745;48.544;8.918;2022-09-09T20:05:34;5.83;;;0.70;;
50773;SDS011;36745;48.544;8.918;2022-09-09T20:08:56;3.47;;;0.73;;
50773;SDS011;36745;48.544;8.918;2022-09-09T20:12:17;2.53;;;0.68;;
50773;SDS011;36745;48.544;8.918;2022-09-09T20:15:39;2.10;;;0.50;;
50773;SDS011;36745;48.544;8.918;2022-09-09T20:19:01;3.72;;;0.57;;
50773;SDS011;36745;48.544;8.918;2022-09-09T20:22:24;3.15;;;0.60;;
50773;SDS011;36745;48.544;8.918;2022-09-09T20:25:45;3.35;;;0.88;;
50773;SDS011;36745;48.544;8.918;2022-09-09T20:29:09;2.10;;;0.80;;
50773;SDS011;36745;48.544;8.918;2022-09-09T20:32:31;1.80;;;1.05;;